sensor_id;sensor_type;location;lat;lon;timestamp;P1;durP1;ratioP1;P2;durP2;ratioP2
60098;SDS011;62818;49.394;8.686;2023-04-25T00:00:06;9.40;;;5.67;;
60098;SDS011;62818;49.394;8.686;2023-04-25T00:01:07;6.20;;;5.55;;
60098;SDS011;62818;49.394;8.686;2023-04-25T00:02:08;9.02;;;5.97;;
60098;SDS011;62818;49.394;8.686;2023-04-25T00:03:09;5.97;;;5.37;;
60098;SDS011;62818;49.394;8.686;2023-04-25T00:04:09;6.77;;;5.77;;
60098;SDS011;62818;49.394;8.686;2023-04-25T00:06:12;8.15;;;5.10;;
60098;SDS011;62818;49.394;8.686;2023-04-25T00:07:13;7.03;;;5.90;;
60098;SDS011;62818;49.394;8.686;2023-04-25T00:08:13;6.50;;;5.40;;
60098;SDS011;62818;49.394;8.686;2023-04-25T00:09:14;5.90;;;5.33;;
60098;SDS011;62818;49.394;8.686;2023-04-25T00:10:15;6.57;;;5.93;;
60098;SDS011;62818;49.394;8.686;2023-04-25T00:11:16;6.88;;;5.57;;
60098;SDS011;62818;49.394;8.686;2023-04-25T00:12:16;6.07;;;5.47;;
60098;SDS011;62818;49.394;8.686;2023-04-25T00:13:17;6.40;;;5.53;;
60098;SDS011;62818;49.394;8.686;2023-04-25T00:14:17;5.97;;;5.40;;
60098;SDS011;62818;49.394;8.686;2023-04-25T00:15:18;5.83;;;5.33;;
60098;SDS011;62818;49.394;8.686;2023-04-25T00:16:18;6.20;;;5.60;;
60098;SDS011;62818;49.394;8.686;2023-04-25T00:17:19;5.90;;;5.17;;
60098;SDS011;62818;49.394;8.686;2023-04-25T00:18:19;6.43;;;5.83;;
60098;SDS011;62818;49.394;8.686;2023-04-25T00:19:20;8.37;;;5.07;;
60098;SDS011;62818;49.394;8.686;2023-04-25T00:20:20;5.63;;;5.13;;
60098;SDS011;62818;49.394;8.686;2023-04-25T00:21:23;6.45;;;5.47;;
60098;SDS011;62818;49.394;8.686;2023-04-25T00:22:25;6.00;;;5.50;;
60098;SDS011;62818;49.394;8.686;2023-04-25T00:23:26;6.83;;;5.77;;
60098;SDS011;62818;49.394;8.686;2023-04-25T00:24:26;6.40;;;5.70;;
60098;SDS011;62818;49.394;8.686;2023-04-25T00:25:27;6.77;;;5.30;;
60098;SDS011;62818;49.394;8.686;2023-04-25T00:26:27;7.83;;;5.77;;
60098;SDS011;62818;49.394;8.686;2023-04-25T00:27:28;7.43;;;6.03;;
60098;SDS011;62818;49.394;8.686;2023-04-25T00:28:28;6.00;;;5.50;;
60098;SDS011;62818;49.394;8.686;2023-04-25T00:29:28;7.33;;;5.40;;
60098;SDS011;62818;49.394;8.686;2023-04-25T00:30:29;7.73;;;5.63;;
60098;SDS011;62818;49.394;8.686;2023-04-25T00:31:29;5.90;;;5.03;;
60098;SDS011;62818;49.394;8.686;2023-04-25T00:32:30;9.27;;;6.03;;
60098;SDS011;62818;49.394;8.686;2023-04-25T00:33:31;6.03;;;5.43;;
60098;SDS011;62818;49.394;8.686;2023-04-25T00:34:31;6.80;;;5.83;;
60098;SDS011;62818;49.394;8.686;2023-04-25T00:35:32;6.53;;;5.93;;
60098;SDS011;62818;49.394;8.686;2023-04-25T00:36:32;6.10;;;5.50;;
60098;SDS011;62818;49.394;8.686;2023-04-25T00:37:33;6.57;;;5.55;;
60098;SDS011;62818;49.394;8.686;2023-04-25T00:38:34;6.68;;;6.07;;
60098;SDS011;62818;49.394;8.686;2023-04-25T00:39:35;8.98;;;6.20;;
60098;SDS011;62818;49.394;8.686;2023-04-25T00:40:36;7.13;;;6.27;;
60098;SDS011;62818;49.394;8.686;2023-04-25T00:41:36;6.33;;;5.73;;
60098;SDS011;62818;49.394;8.686;2023-04-25T00:42:37;6.87;;;6.17;;
60098;SDS011;62818;49.394;8.686;2023-04-25T00:43:38;6.93;;;6.27;;
60098;SDS011;62818;49.394;8.686;2023-04-25T00:44:40;6.40;;;5.80;;
60098;SDS011;62818;49.394;8.686;2023-04-25T00:45:43;7.30;;;5.90;;
60098;SDS011;62818;49.394;8.686;2023-04-25T00:46:49;8.63;;;6.72;;
60098;SDS011;62818;49.394;8.686;2023-04-25T00:47:50;7.05;;;6.05;;
60098;SDS011;62818;49.394;8.686;2023-04-25T00:48:51;6.30;;;5.70;;
60098;SDS011;62818;49.394;8.686;2023-04-25T00:49:51;6.00;;;5.50;;
60098;SDS011;62818;49.394;8.686;2023-04-25T00:51:56;7.22;;;6.20;;
60098;SDS011;62818;49.394;8.686;2023-04-25T00:52:57;6.47;;;5.87;;
60098;SDS011;62818;49.394;8.686;2023-04-25T00:53:57;7.10;;;6.20;;
60098;SDS011;62818;49.394;8.686;2023-04-25T00:54:59;6.97;;;6.03;;
60098;SDS011;62818;49.394;8.686;2023-04-25T00:56:00;7.68;;;6.15;;
60098;SDS011;62818;49.394;8.686;2023-04-25T00:57:01;6.90;;;6.23;;
60098;SDS011;62818;49.394;8.686;2023-04-25T00:58:02;7.07;;;6.07;;
60098;SDS011;62818;49.394;8.686;2023-04-25T00:59:03;9.03;;;6.33;;
60098;SDS011;62818;49.394;8.686;2023-04-25T01:00:04;6.97;;;6.37;;
60098;SDS011;62818;49.394;8.686;2023-04-25T01:01:07;6.85;;;6.25;;
60098;SDS011;62818;49.394;8.686;2023-04-25T01:02:09;6.60;;;6.00;;
60098;SDS011;62818;49.394;8.686;2023-04-25T01:03:09;7.37;;;6.77;;
60098;SDS011;62818;49.394;8.686;2023-04-25T01:04:10;7.13;;;6.43;;
60098;SDS011;62818;49.394;8.686;2023-04-25T01:05:10;7.07;;;6.37;;
60098;SDS011;62818;49.394;8.686;2023-04-25T01:06:12;6.90;;;6.13;;
60098;SDS011;62818;49.394;8.686;2023-04-25T01:07:12;6.35;;;5.78;;
60098;SDS011;62818;49.394;8.686;2023-04-25T01:08:14;6.70;;;6.05;;
60098;SDS011;62818;49.394;8.686;2023-04-25T01:09:14;6.53;;;5.93;;
60098;SDS011;62818;49.394;8.686;2023-04-25T01:10:15;7.10;;;6.20;;
60098;SDS011;62818;49.394;8.686;2023-04-25T01:11:16;8.13;;;6.00;;
60098;SDS011;62818;49.394;8.686;2023-04-25T01:12:17;7.15;;;6.45;;
60098;SDS011;62818;49.394;8.686;2023-04-25T01:13:18;7.03;;;6.32;;
60098;SDS011;62818;49.394;8.686;2023-04-25T01:14:19;6.78;;;6.15;;
60098;SDS011;62818;49.394;8.686;2023-04-25T01:15:20;6.60;;;6.00;;
60098;SDS011;62818;49.394;8.686;2023-04-25T01:16:21;8.07;;;6.20;;
60098;SDS011;62818;49.394;8.686;2023-04-25T01:17:23;6.72;;;6.13;;
60098;SDS011;62818;49.394;8.686;2023-04-25T01:18:24;9.37;;;6.30;;
60098;SDS011;62818;49.394;8.686;2023-04-25T01:19:25;6.67;;;5.97;;
60098;SDS011;62818;49.394;8.686;2023-04-25T01:20:26;7.63;;;6.47;;
60098;SDS011;62818;49.394;8.686;2023-04-25T01:21:28;7.43;;;6.03;;
60098;SDS011;62818;49.394;8.686;2023-04-25T01:22:29;7.13;;;5.85;;
60098;SDS011;62818;49.394;8.686;2023-04-25T01:23:31;7.53;;;6.75;;
60098;SDS011;62818;49.394;8.686;2023-04-25T01:24:33;7.57;;;6.03;;
60098;SDS011;62818;49.394;8.686;2023-04-25T01:25:34;6.70;;;6.00;;
60098;SDS011;62818;49.394;8.686;2023-04-25T01:26:34;6.78;;;6.15;;
60098;SDS011;62818;49.394;8.686;2023-04-25T01:27:36;6.47;;;5.88;;
60098;SDS011;62818;49.394;8.686;2023-04-25T01:28:37;6.40;;;5.80;;
60098;SDS011;62818;49.394;8.686;2023-04-25T01:29:41;6.78;;;5.80;;
60098;SDS011;62818;49.394;8.686;2023-04-25T01:30:42;7.05;;;5.78;;
60098;SDS011;62818;49.394;8.686;2023-04-25T01:31:43;6.30;;;5.70;;
60098;SDS011;62818;49.394;8.686;2023-04-25T01:33:47;6.40;;;5.78;;
60098;SDS011;62818;49.394;8.686;2023-04-25T01:34:47;6.72;;;6.13;;
60098;SDS011;62818;49.394;8.686;2023-04-25T01:35:48;6.67;;;5.90;;
60098;SDS011;62818;49.394;8.686;2023-04-25T01:36:49;6.27;;;5.53;;
60098;SDS011;62818;49.394;8.686;2023-04-25T01:37:50;8.00;;;5.60;;
60098;SDS011;62818;49.394;8.686;2023-04-25T01:38:51;6.35;;;5.80;;
60098;SDS011;62818;49.394;8.686;2023-04-25T01:39:52;6.25;;;5.65;;
60098;SDS011;62818;49.394;8.686;2023-04-25T01:40:53;6.15;;;5.55;;
60098;SDS011;62818;49.394;8.686;2023-04-25T01:41:55;6.95;;;6.25;;
60098;SDS011;62818;49.394;8.686;2023-04-25T01:42:56;6.47;;;5.95;;
60098;SDS011;62818;49.394;8.686;2023-04-25T01:43:57;6.47;;;5.97;;
60098;SDS011;62818;49.394;8.686;2023-04-25T01:44:58;6.50;;;5.60;;
60098;SDS011;62818;49.394;8.686;2023-04-25T01:45:59;6.82;;;5.45;;
60098;SDS011;62818;49.394;8.686;2023-04-25T01:47:00;6.18;;;5.68;;
60098;SDS011;62818;49.394;8.686;2023-04-25T01:48:00;5.83;;;5.23;;
60098;SDS011;62818;49.394;8.686;2023-04-25T01:49:01;7.47;;;5.87;;
60098;SDS011;62818;49.394;8.686;2023-04-25T01:50:03;6.43;;;5.82;;
60098;SDS011;62818;49.394;8.686;2023-04-25T01:51:05;8.25;;;5.85;;
60098;SDS011;62818;49.394;8.686;2023-04-25T01:52:06;6.93;;;6.20;;
60098;SDS011;62818;49.394;8.686;2023-04-25T01:53:06;7.13;;;6.43;;
60098;SDS011;62818;49.394;8.686;2023-04-25T01:54:11;7.05;;;6.35;;
60098;SDS011;62818;49.394;8.686;2023-04-25T01:55:13;6.85;;;6.25;;
60098;SDS011;62818;49.394;8.686;2023-04-25T01:56:14;8.43;;;6.50;;
60098;SDS011;62818;49.394;8.686;2023-04-25T01:57:14;7.70;;;6.87;;
60098;SDS011;62818;49.394;8.686;2023-04-25T01:58:15;7.47;;;6.67;;
60098;SDS011;62818;49.394;8.686;2023-04-25T01:59:15;10.07;;;6.87;;
60098;SDS011;62818;49.394;8.686;2023-04-25T02:00:16;7.43;;;6.60;;
60098;SDS011;62818;49.394;8.686;2023-04-25T02:01:17;7.37;;;6.67;;
60098;SDS011;62818;49.394;8.686;2023-04-25T02:02:17;7.53;;;6.67;;
60098;SDS011;62818;49.394;8.686;2023-04-25T02:03:18;7.40;;;6.60;;
60098;SDS011;62818;49.394;8.686;2023-04-25T02:04:18;7.20;;;6.50;;
60098;SDS011;62818;49.394;8.686;2023-04-25T02:05:19;7.30;;;6.53;;
60098;SDS011;62818;49.394;8.686;2023-04-25T02:06:20;7.93;;;7.13;;
60098;SDS011;62818;49.394;8.686;2023-04-25T02:07:21;7.93;;;7.10;;
60098;SDS011;62818;49.394;8.686;2023-04-25T02:08:22;7.65;;;6.95;;
60098;SDS011;62818;49.394;8.686;2023-04-25T02:09:22;7.67;;;7.07;;
60098;SDS011;62818;49.394;8.686;2023-04-25T02:10:23;9.40;;;6.93;;
60098;SDS011;62818;49.394;8.686;2023-04-25T02:11:23;8.80;;;6.97;;
60098;SDS011;62818;49.394;8.686;2023-04-25T02:12:24;7.80;;;7.00;;
60098;SDS011;62818;49.394;8.686;2023-04-25T02:13:26;7.97;;;7.13;;
60098;SDS011;62818;49.394;8.686;2023-04-25T02:14:26;8.70;;;6.70;;
60098;SDS011;62818;49.394;8.686;2023-04-25T02:15:28;8.07;;;7.25;;
60098;SDS011;62818;49.394;8.686;2023-04-25T02:16:29;8.37;;;7.47;;
60098;SDS011;62818;49.394;8.686;2023-04-25T02:17:30;7.85;;;7.15;;
60098;SDS011;62818;49.394;8.686;2023-04-25T02:18:31;8.43;;;7.40;;
60098;SDS011;62818;49.394;8.686;2023-04-25T02:19:33;6.93;;;6.32;;
60098;SDS011;62818;49.394;8.686;2023-04-25T02:20:33;8.30;;;7.13;;
60098;SDS011;62818;49.394;8.686;2023-04-25T02:21:34;7.80;;;7.00;;
60098;SDS011;62818;49.394;8.686;2023-04-25T02:22:35;9.13;;;6.75;;
60098;SDS011;62818;49.394;8.686;2023-04-25T02:23:36;8.82;;;6.93;;
60098;SDS011;62818;49.394;8.686;2023-04-25T02:24:37;7.28;;;6.50;;
60098;SDS011;62818;49.394;8.686;2023-04-25T02:25:38;8.65;;;7.03;;
60098;SDS011;62818;49.394;8.686;2023-04-25T02:26:39;8.50;;;7.70;;
60098;SDS011;62818;49.394;8.686;2023-04-25T02:27:39;8.20;;;7.43;;
60098;SDS011;62818;49.394;8.686;2023-04-25T02:28:40;7.23;;;6.53;;
60098;SDS011;62818;49.394;8.686;2023-04-25T02:29:40;7.60;;;6.90;;
60098;SDS011;62818;49.394;8.686;2023-04-25T02:30:41;7.23;;;6.53;;
60098;SDS011;62818;49.394;8.686;2023-04-25T02:31:41;8.30;;;7.50;;
60098;SDS011;62818;49.394;8.686;2023-04-25T02:32:42;8.60;;;7.10;;
60098;SDS011;62818;49.394;8.686;2023-04-25T02:33:43;8.90;;;7.97;;
60098;SDS011;62818;49.394;8.686;2023-04-25T02:34:44;8.00;;;7.20;;
60098;SDS011;62818;49.394;8.686;2023-04-25T02:35:44;8.23;;;7.00;;
60098;SDS011;62818;49.394;8.686;2023-04-25T02:36:45;8.40;;;7.60;;
60098;SDS011;62818;49.394;8.686;2023-04-25T02:37:46;8.20;;;7.37;;
60098;SDS011;62818;49.394;8.686;2023-04-25T02:38:46;9.67;;;7.33;;
60098;SDS011;62818;49.394;8.686;2023-04-25T02:39:47;7.77;;;7.07;;
60098;SDS011;62818;49.394;8.686;2023-04-25T02:40:47;8.27;;;7.47;;
60098;SDS011;62818;49.394;8.686;2023-04-25T02:41:47;7.80;;;7.10;;
60098;SDS011;62818;49.394;8.686;2023-04-25T02:42:48;8.70;;;7.27;;
60098;SDS011;62818;49.394;8.686;2023-04-25T02:43:48;8.37;;;7.57;;
60098;SDS011;62818;49.394;8.686;2023-04-25T02:44:49;9.10;;;7.70;;
60098;SDS011;62818;49.394;8.686;2023-04-25T02:45:49;8.53;;;7.77;;
60098;SDS011;62818;49.394;8.686;2023-04-25T02:46:50;8.03;;;7.17;;
60098;SDS011;62818;49.394;8.686;2023-04-25T02:47:50;7.93;;;7.13;;
60098;SDS011;62818;49.394;8.686;2023-04-25T02:48:51;8.57;;;7.77;;
60098;SDS011;62818;49.394;8.686;2023-04-25T02:49:51;8.67;;;7.87;;
60098;SDS011;62818;49.394;8.686;2023-04-25T02:50:52;8.63;;;7.53;;
60098;SDS011;62818;49.394;8.686;2023-04-25T02:51:52;8.50;;;7.60;;
60098;SDS011;62818;49.394;8.686;2023-04-25T02:52:53;10.40;;;7.73;;
60098;SDS011;62818;49.394;8.686;2023-04-25T02:53:53;9.53;;;8.73;;
60098;SDS011;62818;49.394;8.686;2023-04-25T02:54:54;9.37;;;7.30;;
60098;SDS011;62818;49.394;8.686;2023-04-25T02:55:54;8.50;;;7.70;;
60098;SDS011;62818;49.394;8.686;2023-04-25T02:56:58;9.45;;;7.85;;
60098;SDS011;62818;49.394;8.686;2023-04-25T02:57:58;8.60;;;7.80;;
60098;SDS011;62818;49.394;8.686;2023-04-25T02:58:59;8.63;;;7.60;;
60098;SDS011;62818;49.394;8.686;2023-04-25T02:59:59;9.60;;;8.17;;
60098;SDS011;62818;49.394;8.686;2023-04-25T03:01:00;9.20;;;8.27;;
60098;SDS011;62818;49.394;8.686;2023-04-25T03:02:00;8.80;;;7.90;;
60098;SDS011;62818;49.394;8.686;2023-04-25T03:03:01;9.68;;;8.15;;
60098;SDS011;62818;49.394;8.686;2023-04-25T03:04:02;9.77;;;8.00;;
60098;SDS011;62818;49.394;8.686;2023-04-25T03:05:02;8.93;;;8.03;;
60098;SDS011;62818;49.394;8.686;2023-04-25T03:06:03;8.80;;;7.70;;
60098;SDS011;62818;49.394;8.686;2023-04-25T03:07:04;8.77;;;7.87;;
60098;SDS011;62818;49.394;8.686;2023-04-25T03:08:05;10.20;;;8.30;;
60098;SDS011;62818;49.394;8.686;2023-04-25T03:09:06;9.20;;;8.30;;
60098;SDS011;62818;49.394;8.686;2023-04-25T03:10:07;9.37;;;8.13;;
60098;SDS011;62818;49.394;8.686;2023-04-25T03:11:07;9.97;;;8.40;;
60098;SDS011;62818;49.394;8.686;2023-04-25T03:12:08;9.93;;;8.20;;
60098;SDS011;62818;49.394;8.686;2023-04-25T03:13:09;8.70;;;7.83;;
60098;SDS011;62818;49.394;8.686;2023-04-25T03:14:09;10.33;;;8.20;;
60098;SDS011;62818;49.394;8.686;2023-04-25T03:15:10;10.10;;;8.47;;
60098;SDS011;62818;49.394;8.686;2023-04-25T03:16:10;9.20;;;8.30;;
60098;SDS011;62818;49.394;8.686;2023-04-25T03:17:11;8.93;;;8.03;;
60098;SDS011;62818;49.394;8.686;2023-04-25T03:18:11;9.87;;;8.20;;
60098;SDS011;62818;49.394;8.686;2023-04-25T03:19:12;9.63;;;8.50;;
60098;SDS011;62818;49.394;8.686;2023-04-25T03:20:12;9.00;;;8.13;;
60098;SDS011;62818;49.394;8.686;2023-04-25T03:21:13;11.13;;;9.10;;
60098;SDS011;62818;49.394;8.686;2023-04-25T03:22:13;10.00;;;9.10;;
60098;SDS011;62818;49.394;8.686;2023-04-25T03:23:14;12.13;;;9.00;;
60098;SDS011;62818;49.394;8.686;2023-04-25T03:24:14;9.47;;;8.47;;
60098;SDS011;62818;49.394;8.686;2023-04-25T03:25:15;11.20;;;8.40;;
60098;SDS011;62818;49.394;8.686;2023-04-25T03:26:15;10.63;;;8.20;;
60098;SDS011;62818;49.394;8.686;2023-04-25T03:27:16;9.70;;;8.57;;
60098;SDS011;62818;49.394;8.686;2023-04-25T03:28:17;10.80;;;8.85;;
60098;SDS011;62818;49.394;8.686;2023-04-25T03:29:18;9.17;;;8.17;;
60098;SDS011;62818;49.394;8.686;2023-04-25T03:30:18;9.23;;;8.33;;
60098;SDS011;62818;49.394;8.686;2023-04-25T03:31:19;9.50;;;8.63;;
60098;SDS011;62818;49.394;8.686;2023-04-25T03:32:19;10.52;;;9.40;;
60098;SDS011;62818;49.394;8.686;2023-04-25T03:33:20;10.07;;;9.13;;
60098;SDS011;62818;49.394;8.686;2023-04-25T03:34:21;10.40;;;9.40;;
60098;SDS011;62818;49.394;8.686;2023-04-25T03:35:21;9.47;;;8.50;;
60098;SDS011;62818;49.394;8.686;2023-04-25T03:36:23;11.63;;;9.60;;
60098;SDS011;62818;49.394;8.686;2023-04-25T03:37:24;10.13;;;9.07;;
60098;SDS011;62818;49.394;8.686;2023-04-25T03:38:24;10.80;;;8.63;;
60098;SDS011;62818;49.394;8.686;2023-04-25T03:39:25;10.43;;;9.33;;
60098;SDS011;62818;49.394;8.686;2023-04-25T03:40:25;10.90;;;9.30;;
60098;SDS011;62818;49.394;8.686;2023-04-25T03:41:26;11.00;;;9.90;;
60098;SDS011;62818;49.394;8.686;2023-04-25T03:42:27;9.95;;;8.98;;
60098;SDS011;62818;49.394;8.686;2023-04-25T03:43:28;10.03;;;9.00;;
60098;SDS011;62818;49.394;8.686;2023-04-25T03:44:28;12.30;;;8.90;;
60098;SDS011;62818;49.394;8.686;2023-04-25T03:45:29;10.63;;;9.53;;
60098;SDS011;62818;49.394;8.686;2023-04-25T03:46:29;9.80;;;8.87;;
60098;SDS011;62818;49.394;8.686;2023-04-25T03:47:30;9.80;;;8.90;;
60098;SDS011;62818;49.394;8.686;2023-04-25T03:48:30;10.50;;;9.40;;
60098;SDS011;62818;49.394;8.686;2023-04-25T03:49:31;10.33;;;9.33;;
60098;SDS011;62818;49.394;8.686;2023-04-25T03:50:32;11.18;;;9.98;;
60098;SDS011;62818;49.394;8.686;2023-04-25T03:51:33;11.80;;;9.40;;
60098;SDS011;62818;49.394;8.686;2023-04-25T03:52:33;10.67;;;9.63;;
60098;SDS011;62818;49.394;8.686;2023-04-25T03:53:34;12.27;;;10.07;;
60098;SDS011;62818;49.394;8.686;2023-04-25T03:54:34;10.93;;;9.93;;
60098;SDS011;62818;49.394;8.686;2023-04-25T03:55:35;13.13;;;10.50;;
60098;SDS011;62818;49.394;8.686;2023-04-25T03:56:35;13.13;;;9.97;;
60098;SDS011;62818;49.394;8.686;2023-04-25T03:57:35;16.23;;;9.77;;
60098;SDS011;62818;49.394;8.686;2023-04-25T03:58:36;11.00;;;9.87;;
60098;SDS011;62818;49.394;8.686;2023-04-25T03:59:36;10.80;;;9.63;;
60098;SDS011;62818;49.394;8.686;2023-04-25T04:00:37;10.47;;;9.47;;
60098;SDS011;62818;49.394;8.686;2023-04-25T04:01:37;11.33;;;10.03;;
60098;SDS011;62818;49.394;8.686;2023-04-25T04:02:38;11.73;;;10.43;;
60098;SDS011;62818;49.394;8.686;2023-04-25T04:03:38;11.87;;;10.63;;
60098;SDS011;62818;49.394;8.686;2023-04-25T04:04:39;11.27;;;10.10;;
60098;SDS011;62818;49.394;8.686;2023-04-25T04:05:39;10.33;;;9.33;;
60098;SDS011;62818;49.394;8.686;2023-04-25T04:06:40;11.40;;;10.20;;
60098;SDS011;62818;49.394;8.686;2023-04-25T04:07:42;10.75;;;9.65;;
60098;SDS011;62818;49.394;8.686;2023-04-25T04:08:42;10.97;;;9.90;;
60098;SDS011;62818;49.394;8.686;2023-04-25T04:09:43;11.30;;;10.30;;
60098;SDS011;62818;49.394;8.686;2023-04-25T04:10:43;11.27;;;10.17;;
60098;SDS011;62818;49.394;8.686;2023-04-25T04:11:44;10.87;;;9.70;;
60098;SDS011;62818;49.394;8.686;2023-04-25T04:12:44;11.63;;;10.53;;
60098;SDS011;62818;49.394;8.686;2023-04-25T04:13:45;11.27;;;9.93;;
60098;SDS011;62818;49.394;8.686;2023-04-25T04:14:45;11.67;;;10.50;;
60098;SDS011;62818;49.394;8.686;2023-04-25T04:15:46;11.07;;;10.00;;
60098;SDS011;62818;49.394;8.686;2023-04-25T04:16:46;10.93;;;9.93;;
60098;SDS011;62818;49.394;8.686;2023-04-25T04:17:48;10.93;;;9.90;;
60098;SDS011;62818;49.394;8.686;2023-04-25T04:18:49;15.52;;;13.82;;
60098;SDS011;62818;49.394;8.686;2023-04-25T04:19:49;24.30;;;19.03;;
60098;SDS011;62818;49.394;8.686;2023-04-25T04:20:50;16.03;;;13.57;;
60098;SDS011;62818;49.394;8.686;2023-04-25T04:21:50;12.40;;;11.10;;
60098;SDS011;62818;49.394;8.686;2023-04-25T04:22:51;11.07;;;10.00;;
60098;SDS011;62818;49.394;8.686;2023-04-25T04:23:51;11.10;;;9.97;;
60098;SDS011;62818;49.394;8.686;2023-04-25T04:24:52;10.70;;;9.57;;
60098;SDS011;62818;49.394;8.686;2023-04-25T04:25:52;11.13;;;10.03;;
60098;SDS011;62818;49.394;8.686;2023-04-25T04:26:54;10.82;;;9.77;;
60098;SDS011;62818;49.394;8.686;2023-04-25T04:27:55;11.10;;;10.00;;
60098;SDS011;62818;49.394;8.686;2023-04-25T04:28:55;11.13;;;9.37;;
60098;SDS011;62818;49.394;8.686;2023-04-25T04:29:55;10.43;;;9.43;;
60098;SDS011;62818;49.394;8.686;2023-04-25T04:31:57;11.07;;;9.85;;
60098;SDS011;62818;49.394;8.686;2023-04-25T04:32:58;10.47;;;9.50;;
60098;SDS011;62818;49.394;8.686;2023-04-25T04:34:00;11.35;;;10.25;;
60098;SDS011;62818;49.394;8.686;2023-04-25T04:35:01;12.07;;;10.40;;
60098;SDS011;62818;49.394;8.686;2023-04-25T04:36:03;11.32;;;10.25;;
60098;SDS011;62818;49.394;8.686;2023-04-25T04:38:05;11.40;;;9.68;;
60098;SDS011;62818;49.394;8.686;2023-04-25T04:39:05;11.93;;;10.33;;
60098;SDS011;62818;49.394;8.686;2023-04-25T04:40:06;10.98;;;9.88;;
60098;SDS011;62818;49.394;8.686;2023-04-25T04:41:08;13.65;;;10.80;;
60098;SDS011;62818;49.394;8.686;2023-04-25T04:42:08;12.48;;;11.23;;
60098;SDS011;62818;49.394;8.686;2023-04-25T04:43:11;11.35;;;10.15;;
60098;SDS011;62818;49.394;8.686;2023-04-25T04:44:11;13.27;;;10.67;;
60098;SDS011;62818;49.394;8.686;2023-04-25T04:45:12;11.30;;;10.30;;
60098;SDS011;62818;49.394;8.686;2023-04-25T04:46:13;11.17;;;10.17;;
60098;SDS011;62818;49.394;8.686;2023-04-25T04:47:14;11.48;;;10.27;;
60098;SDS011;62818;49.394;8.686;2023-04-25T04:48:14;11.23;;;10.13;;
60098;SDS011;62818;49.394;8.686;2023-04-25T04:49:15;12.38;;;10.07;;
60098;SDS011;62818;49.394;8.686;2023-04-25T04:50:16;11.47;;;10.30;;
60098;SDS011;62818;49.394;8.686;2023-04-25T04:51:16;11.47;;;10.13;;
60098;SDS011;62818;49.394;8.686;2023-04-25T04:52:17;11.73;;;10.57;;
60098;SDS011;62818;49.394;8.686;2023-04-25T04:53:18;11.63;;;10.43;;
60098;SDS011;62818;49.394;8.686;2023-04-25T04:54:19;12.32;;;10.15;;
60098;SDS011;62818;49.394;8.686;2023-04-25T04:55:20;15.73;;;10.53;;
60098;SDS011;62818;49.394;8.686;2023-04-25T04:56:20;11.13;;;10.03;;
60098;SDS011;62818;49.394;8.686;2023-04-25T04:57:23;13.05;;;11.48;;
60098;SDS011;62818;49.394;8.686;2023-04-25T04:58:24;11.13;;;10.13;;
60098;SDS011;62818;49.394;8.686;2023-04-25T04:59:24;12.03;;;10.13;;
60098;SDS011;62818;49.394;8.686;2023-04-25T05:00:25;11.20;;;10.20;;
60098;SDS011;62818;49.394;8.686;2023-04-25T05:01:26;11.48;;;10.27;;
60098;SDS011;62818;49.394;8.686;2023-04-25T05:02:26;11.40;;;10.23;;
60098;SDS011;62818;49.394;8.686;2023-04-25T05:03:27;11.67;;;10.60;;
60098;SDS011;62818;49.394;8.686;2023-04-25T05:04:27;11.43;;;10.23;;
60098;SDS011;62818;49.394;8.686;2023-04-25T05:05:28;11.60;;;10.50;;
60098;SDS011;62818;49.394;8.686;2023-04-25T05:06:29;11.93;;;10.73;;
60098;SDS011;62818;49.394;8.686;2023-04-25T05:07:29;11.05;;;10.05;;
60098;SDS011;62818;49.394;8.686;2023-04-25T05:08:30;12.23;;;10.60;;
60098;SDS011;62818;49.394;8.686;2023-04-25T05:09:31;11.63;;;10.50;;
60098;SDS011;62818;49.394;8.686;2023-04-25T05:10:31;12.27;;;11.07;;
60098;SDS011;62818;49.394;8.686;2023-04-25T05:11:32;11.57;;;10.30;;
60098;SDS011;62818;49.394;8.686;2023-04-25T05:12:32;12.97;;;10.73;;
60098;SDS011;62818;49.394;8.686;2023-04-25T05:13:33;11.67;;;10.47;;
60098;SDS011;62818;49.394;8.686;2023-04-25T05:14:33;12.17;;;11.07;;
60098;SDS011;62818;49.394;8.686;2023-04-25T05:15:34;15.45;;;10.98;;
60098;SDS011;62818;49.394;8.686;2023-04-25T05:16:35;13.07;;;10.70;;
60098;SDS011;62818;49.394;8.686;2023-04-25T05:17:35;11.97;;;10.70;;
60098;SDS011;62818;49.394;8.686;2023-04-25T05:18:36;12.50;;;10.83;;
60098;SDS011;62818;49.394;8.686;2023-04-25T05:19:36;12.30;;;11.10;;
60098;SDS011;62818;49.394;8.686;2023-04-25T05:20:37;12.13;;;11.03;;
60098;SDS011;62818;49.394;8.686;2023-04-25T05:21:37;12.23;;;11.00;;
60098;SDS011;62818;49.394;8.686;2023-04-25T05:22:37;11.47;;;10.37;;
60098;SDS011;62818;49.394;8.686;2023-04-25T05:23:38;11.80;;;10.60;;
60098;SDS011;62818;49.394;8.686;2023-04-25T05:24:38;12.90;;;10.20;;
60098;SDS011;62818;49.394;8.686;2023-04-25T05:25:39;11.83;;;10.33;;
60098;SDS011;62818;49.394;8.686;2023-04-25T05:26:39;11.83;;;10.47;;
60098;SDS011;62818;49.394;8.686;2023-04-25T05:27:40;14.33;;;11.13;;
60098;SDS011;62818;49.394;8.686;2023-04-25T05:28:40;11.73;;;10.63;;
60098;SDS011;62818;49.394;8.686;2023-04-25T05:29:42;12.60;;;11.32;;
60098;SDS011;62818;49.394;8.686;2023-04-25T05:30:42;12.03;;;10.93;;
60098;SDS011;62818;49.394;8.686;2023-04-25T05:31:44;10.97;;;9.97;;
60098;SDS011;62818;49.394;8.686;2023-04-25T05:32:45;11.48;;;10.38;;
60098;SDS011;62818;49.394;8.686;2023-04-25T05:33:46;11.88;;;10.68;;
60098;SDS011;62818;49.394;8.686;2023-04-25T05:34:47;11.37;;;10.17;;
60098;SDS011;62818;49.394;8.686;2023-04-25T05:35:48;12.00;;;10.80;;
60098;SDS011;62818;49.394;8.686;2023-04-25T05:36:48;12.13;;;10.93;;
60098;SDS011;62818;49.394;8.686;2023-04-25T05:37:49;12.63;;;11.33;;
60098;SDS011;62818;49.394;8.686;2023-04-25T05:38:49;11.33;;;10.30;;
60098;SDS011;62818;49.394;8.686;2023-04-25T05:39:50;12.30;;;11.10;;
60098;SDS011;62818;49.394;8.686;2023-04-25T05:40:50;12.87;;;11.67;;
60098;SDS011;62818;49.394;8.686;2023-04-25T05:41:51;12.30;;;11.10;;
60098;SDS011;62818;49.394;8.686;2023-04-25T05:42:51;12.40;;;11.20;;
60098;SDS011;62818;49.394;8.686;2023-04-25T05:43:52;12.27;;;11.07;;
60098;SDS011;62818;49.394;8.686;2023-04-25T05:44:52;12.20;;;10.80;;
60098;SDS011;62818;49.394;8.686;2023-04-25T05:45:53;13.73;;;11.03;;
60098;SDS011;62818;49.394;8.686;2023-04-25T05:46:53;11.70;;;10.33;;
60098;SDS011;62818;49.394;8.686;2023-04-25T05:47:54;11.83;;;10.60;;
60098;SDS011;62818;49.394;8.686;2023-04-25T05:48:54;11.87;;;10.23;;
60098;SDS011;62818;49.394;8.686;2023-04-25T05:49:55;12.90;;;11.47;;
60098;SDS011;62818;49.394;8.686;2023-04-25T05:50:55;12.33;;;11.03;;
60098;SDS011;62818;49.394;8.686;2023-04-25T05:51:56;14.77;;;11.30;;
60098;SDS011;62818;49.394;8.686;2023-04-25T05:52:56;11.97;;;10.80;;
60098;SDS011;62818;49.394;8.686;2023-04-25T05:53:57;12.40;;;11.20;;
60098;SDS011;62818;49.394;8.686;2023-04-25T05:54:57;11.73;;;10.73;;
60098;SDS011;62818;49.394;8.686;2023-04-25T05:55:58;11.70;;;10.70;;
60098;SDS011;62818;49.394;8.686;2023-04-25T05:56:58;11.83;;;10.30;;
60098;SDS011;62818;49.394;8.686;2023-04-25T05:57:59;12.73;;;10.77;;
60098;SDS011;62818;49.394;8.686;2023-04-25T05:58:59;13.33;;;12.03;;
60098;SDS011;62818;49.394;8.686;2023-04-25T05:59:59;12.33;;;11.13;;
60098;SDS011;62818;49.394;8.686;2023-04-25T06:01:01;13.83;;;11.50;;
60098;SDS011;62818;49.394;8.686;2023-04-25T06:02:02;12.43;;;11.15;;
60098;SDS011;62818;49.394;8.686;2023-04-25T06:03:03;11.97;;;10.77;;
60098;SDS011;62818;49.394;8.686;2023-04-25T06:04:03;12.03;;;10.87;;
60098;SDS011;62818;49.394;8.686;2023-04-25T06:05:04;11.97;;;10.77;;
60098;SDS011;62818;49.394;8.686;2023-04-25T06:06:05;13.13;;;10.93;;
60098;SDS011;62818;49.394;8.686;2023-04-25T06:07:05;12.10;;;10.80;;